Austin, Utah
Current Conditions -  °F | °C
As of 10:52 AM on Saturday 25 Oct 2014 (Local Time) from KMLF Reporting Station
Clear Clear  
Wind Chill: 65°   Ceiling: Unl
Heat Index: 65°   Visibility: 10mi
Dew Point: 36°   Wind: 20mph
Humidity: 34%   Direction: 200°SSW
Pressure: 30.15"   Gusts: NA
Location:  38.6125°N, 112.081°W
Report Text: KMLF 251652Z AUTO 20017KT 10SM CLR 18/02 A3015 RMK AO2 SLP163 T01830022 TSNO
Loading
Personal Weather Stations






























Interactive Weather Map
Tropical Storm Tracking
New forecast layout! Learn more

10-Day Weather Forecast

Advertisements
Track Severe Weather on mobile